Time;durP1;ratioP1;P1;durP2;ratioP2;P2;SDS_P1;SDS_P2;PMS_P1;PMS_P2;Temp;Humidity;BMP_temperature;BMP_pressure;BME280_temperature;BME280_humidity;BME280_pressure;Samples;Min_cycle;Max_cycle;Signal;HPM_P1;HPM_P2
2022/01/11 00:01:03;;;;;;;70.33;36.70;;;1.00;99.90;-0.10;102021.00;;;;4994335;28;88079;-74
2022/01/11 00:03:30;;;;;;;66.33;36.17;;;0.10;99.90;-0.10;102022.00;;;;4993305;28;88415;-76
2022/01/11 00:06:00;;;;;;;66.33;36.73;;;0.20;99.90;-0.10;102021.00;;;;4994469;27;88828;-79
2022/01/11 00:08:31;;;;;;;77.37;38.53;;;0.60;99.90;-0.10;102030.00;;;;4978992;27;87797;-74
2022/01/11 00:11:04;;;;;;;65.50;36.23;;;0.70;99.90;-0.10;102015.00;;;;5004610;27;87600;-74
2022/01/11 00:13:33;;;;;;;74.83;39.00;;;0.20;99.90;0.00;102022.00;;;;4978561;28;89107;-74
2022/01/11 00:15:59;;;;;;;82.57;40.33;;;0.20;99.90;0.00;102025.00;;;;5003708;27;99248;-76
2022/01/11 00:18:24;;;;;;;65.70;35.43;;;0.30;99.90;0.00;102025.00;;;;5013718;27;88140;-76
2022/01/11 00:20:50;;;;;;;70.80;35.33;;;1.00;99.90;0.00;102029.00;;;;5014054;27;90898;-75
2022/01/11 00:25:45;;;;;;;65.33;34.40;;;0.30;99.90;0.00;102020.00;;;;5009565;27;108370;-73
2022/01/11 00:28:14;;;;;;;66.07;35.77;;;0.20;99.90;0.00;102033.00;;;;4977946;28;87908;-74
2022/01/11 00:30:42;;;;;;;57.27;33.37;;;0.30;99.90;0.00;102028.00;;;;4994021;28;87261;-75
2022/01/11 00:33:14;;;;;;;68.57;32.90;;;0.20;99.90;0.00;102032.00;;;;4993290;27;89118;-74
2022/01/11 00:35:42;;;;;;;66.10;32.33;;;0.30;99.90;0.00;102045.00;;;;4986798;28;89007;-76
2022/01/11 00:38:17;;;;;;;65.77;32.37;;;0.20;99.90;0.00;102042.00;;;;4974208;28;88664;-77
2022/01/11 00:40:49;;;;;;;62.40;35.10;;;1.30;99.90;0.00;102040.00;;;;4975177;28;87847;-74
2022/01/11 00:43:18;;;;;;;71.23;36.40;;;0.30;99.90;0.00;102045.00;;;;4988630;28;106846;-74
2022/01/11 00:45:44;;;;;;;67.30;33.87;;;0.40;99.90;-0.10;102049.00;;;;4993065;27;88401;-76
2022/01/11 00:48:11;;;;;;;62.47;34.40;;;0.30;99.90;-0.10;102052.00;;;;4992650;27;99645;-72
2022/01/11 00:50:37;;;;;;;64.77;36.97;;;1.10;99.90;-0.10;102048.00;;;;4992556;27;107422;-73
2022/01/11 00:53:04;;;;;;;61.37;32.40;;;0.20;99.90;-0.10;102051.00;;;;4994589;27;88105;-73
2022/01/11 00:55:31;;;;;;;71.10;34.57;;;0.20;99.90;-0.10;102051.00;;;;5002659;27;97141;-72
2022/01/11 00:57:57;;;;;;;54.70;33.67;;;0.10;99.90;-0.10;102059.00;;;;4993080;28;87885;-72
2022/01/11 01:00:23;;;;;;;55.37;31.90;;;0.20;99.90;-0.20;102061.00;;;;5000485;27;108833;-72
2022/01/11 01:02:51;;;;;;;57.63;31.63;;;0.10;99.90;-0.30;102050.00;;;;4995541;27;112164;-73
2022/01/11 01:05:17;;;;;;;63.77;31.83;;;0.00;99.90;-0.30;102061.00;;;;4977194;28;118097;-72
2022/01/11 01:07:44;;;;;;;67.53;32.60;;;0.00;99.90;-0.30;102060.00;;;;4996645;27;87889;-71
2022/01/11 01:10:20;;;;;;;65.77;33.10;;;0.00;99.90;-0.30;102072.00;;;;4996748;28;87910;-72
2022/01/11 01:12:46;;;;;;;67.33;31.47;;;-0.10;99.90;-0.40;102071.00;;;;5006694;27;88197;-73
2022/01/11 01:15:12;;;;;;;55.03;32.43;;;0.00;99.90;-0.40;102067.00;;;;5014412;27;117106;-72
2022/01/11 01:17:38;;;;;;;59.30;31.20;;;-0.10;99.90;-0.40;102070.00;;;;5016737;27;89889;-72
2022/01/11 01:20:05;;;;;;;67.40;37.50;;;-0.10;99.90;-0.40;102068.00;;;;5017268;27;87063;-73
2022/01/11 01:22:31;;;;;;;68.97;36.07;;;-0.10;99.90;-0.40;102074.00;;;;5007669;27;105157;-73
2022/01/11 01:24:56;;;;;;;58.00;31.87;;;0.00;99.90;-0.40;102066.00;;;;4995321;28;107185;-72
2022/01/11 01:27:22;;;;;;;77.87;38.60;;;-0.10;99.90;-0.40;102061.00;;;;4991157;27;112741;-72
2022/01/11 01:29:48;;;;;;;56.10;32.23;;;0.80;99.90;-0.30;102061.00;;;;5002344;27;110040;-71
2022/01/11 01:32:14;;;;;;;66.67;31.73;;;0.00;99.90;-0.30;102072.00;;;;5015205;27;118853;-71
2022/01/11 01:34:39;;;;;;;69.00;35.10;;;0.30;99.90;-0.30;102079.00;;;;4995684;27;116844;-71
2022/01/11 01:37:07;;;;;;;66.47;35.13;;;-0.10;99.90;-0.40;102074.00;;;;5015507;27;112446;-72
2022/01/11 01:39:33;;;;;;;64.03;31.23;;;0.00;99.90;-0.40;102073.00;;;;5015891;27;88000;-73
2022/01/11 01:42:07;;;;;;;74.20;32.47;;;-0.10;99.90;-0.40;102089.00;;;;5015739;27;102321;-71
2022/01/11 01:44:35;;;;;;;64.20;29.73;;;-0.10;99.90;-0.50;102089.00;;;;5016253;27;88715;-72
2022/01/11 01:47:01;;;;;;;58.50;29.37;;;-0.20;99.90;-0.50;102099.00;;;;5016615;27;87636;-72
2022/01/11 01:49:28;;;;;;;58.50;27.93;;;-0.10;99.90;-0.60;102104.00;;;;5014980;27;104324;-73
2022/01/11 01:51:54;;;;;;;51.13;27.83;;;-0.20;99.90;-0.60;102101.00;;;;5000748;27;90365;-71
2022/01/11 01:54:21;;;;;;;52.67;29.93;;;-0.30;99.90;-0.70;102117.00;;;;4987841;28;121791;-72
2022/01/11 01:56:47;;;;;;;65.63;29.67;;;-0.40;99.90;-0.70;102107.00;;;;4977821;27;87987;-70
2022/01/11 01:59:13;;;;;;;58.17;29.17;;;-0.40;99.90;-0.70;102102.00;;;;5002677;27;109016;-71
2022/01/11 02:01:45;;;;;;;61.80;30.63;;;-0.30;99.90;-0.80;102108.00;;;;4994658;28;104174;-72
2022/01/11 02:04:13;;;;;;;57.87;30.53;;;-0.40;99.90;-0.80;102115.00;;;;4995205;27;88552;-72
2022/01/11 02:06:39;;;;;;;50.47;29.13;;;-0.50;99.90;-0.80;102101.00;;;;5005565;27;87731;-73
2022/01/11 02:09:05;;;;;;;56.00;31.20;;;-0.50;99.90;-0.80;102110.00;;;;5014174;27;107768;-72
2022/01/11 02:11:32;;;;;;;62.03;30.23;;;-0.50;99.90;-0.80;102112.00;;;;4995938;27;116709;-72
2022/01/11 02:13:59;;;;;;;68.30;32.60;;;-0.60;99.90;-0.80;102104.00;;;;5015760;27;88162;-72
2022/01/11 02:16:25;;;;;;;44.17;29.30;;;-0.50;99.90;-0.90;102114.00;;;;5015006;27;88786;-71
2022/01/11 02:18:52;;;;;;;53.43;31.13;;;-0.40;99.90;-0.80;102125.00;;;;5013861;27;93599;-70
2022/01/11 02:21:18;;;;;;;60.80;30.30;;;-0.50;99.90;-0.80;102115.00;;;;4978354;28;88242;-71
2022/01/11 02:23:45;;;;;;;55.43;29.57;;;0.40;99.90;-0.90;102117.00;;;;5013377;27;88103;-73
2022/01/11 02:26:11;;;;;;;57.13;29.60;;;-0.50;99.90;-1.00;102118.00;;;;4979956;27;87791;-72
2022/01/11 02:28:37;;;;;;;52.87;30.57;;;-0.60;99.90;-1.00;102130.00;;;;5014336;27;95078;-71
2022/01/11 02:31:07;;;;;;;55.73;31.60;;;-0.60;99.90;-1.10;102122.00;;;;5015487;27;87838;-74
2022/01/11 02:33:37;;;;;;;54.00;30.13;;;-0.90;99.90;-1.10;102120.00;;;;5014932;27;88341;-73
2022/01/11 02:36:18;;;;;;;51.53;29.07;;;-0.70;99.90;-1.20;102130.00;;;;4977095;28;88122;-72
2022/01/11 02:38:46;;;;;;;63.07;30.07;;;-0.70;99.90;-1.20;102127.00;;;;4995369;28;87889;-73
2022/01/11 02:41:12;;;;;;;59.80;29.20;;;-0.20;99.90;-1.20;102139.00;;;;4993965;28;89819;-73
2022/01/11 02:43:47;;;;;;;54.53;31.37;;;-0.90;99.90;-1.20;102145.00;;;;5011955;27;95872;-71
2022/01/11 02:46:19;;;;;;;55.40;29.47;;;-0.80;99.90;-1.20;102135.00;;;;5011512;27;88022;-71
2022/01/11 02:48:46;;;;;;;60.73;31.20;;;-0.80;99.90;-1.20;102144.00;;;;4994701;28;87905;-71
2022/01/11 02:51:12;;;;;;;52.30;27.70;;;-0.70;99.90;-1.10;102139.00;;;;5000562;27;89056;-71
2022/01/11 02:53:47;;;;;;;63.47;31.10;;;0.10;99.90;-1.10;102133.00;;;;4978187;28;88113;-70
2022/01/11 02:56:15;;;;;;;62.73;30.80;;;0.00;99.90;-1.10;102132.00;;;;5007662;27;87845;-72
2022/01/11 02:58:41;;;;;;;65.50;29.73;;;-0.90;99.90;-1.20;102132.00;;;;5015422;27;87113;-71
2022/01/11 03:01:08;;;;;;;56.67;29.63;;;-0.90;99.90;-1.30;102142.00;;;;5013619;27;117727;-72
2022/01/11 03:03:34;;;;;;;71.23;28.50;;;-1.00;99.90;-1.40;102142.00;;;;5014435;27;88155;-71
2022/01/11 03:06:02;;;;;;;65.97;28.00;;;-1.00;99.90;-1.30;102146.00;;;;5014313;27;89350;-72
2022/01/11 03:08:33;;;;;;;53.57;28.23;;;-1.00;99.90;-1.40;102145.00;;;;4979717;28;87931;-70
2022/01/11 03:11:00;;;;;;;60.53;30.70;;;-1.10;99.90;-1.40;102149.00;;;;4991614;28;88447;-73
2022/01/11 03:13:26;;;;;;;51.50;26.73;;;-0.70;99.90;-1.40;102152.00;;;;4993461;28;89271;-71
2022/01/11 03:15:53;;;;;;;48.17;26.13;;;-1.10;99.90;-1.40;102155.00;;;;5009599;27;97009;-72
2022/01/11 03:18:20;;;;;;;49.20;26.37;;;-1.10;99.90;-1.30;102151.00;;;;5014576;27;87765;-70
2022/01/11 03:20:49;;;;;;;44.00;23.13;;;-1.50;99.90;-1.30;102154.00;;;;4995773;27;101454;-70
2022/01/11 03:23:16;;;;;;;45.40;26.63;;;-1.00;99.90;-1.30;102159.00;;;;5013540;27;88282;-72
2022/01/11 03:25:43;;;;;;;42.60;21.83;;;-1.00;99.90;-1.30;102147.00;;;;5009029;27;88191;-71
2022/01/11 03:28:09;;;;;;;42.10;24.20;;;-1.00;99.90;-1.30;102159.00;;;;4994917;28;87600;-71
2022/01/11 03:30:35;;;;;;;48.10;24.87;;;-0.90;99.90;-1.30;102173.00;;;;4994022;28;105179;-71
2022/01/11 03:33:02;;;;;;;38.20;22.33;;;-0.60;99.90;-1.30;102168.00;;;;4994000;27;89804;-70
2022/01/11 03:35:29;;;;;;;54.00;22.53;;;-0.90;99.90;-1.30;102172.00;;;;4979721;28;88014;-71
2022/01/11 03:37:55;;;;;;;44.43;22.33;;;-1.00;99.90;-1.30;102168.00;;;;5006317;27;88011;-72
2022/01/11 03:40:25;;;;;;;44.63;21.30;;;-0.90;99.90;-1.30;102177.00;;;;5014710;27;93097;-71
2022/01/11 03:42:51;;;;;;;38.80;23.20;;;-0.90;99.90;-1.30;102171.00;;;;5012896;27;100461;-70
2022/01/11 03:45:21;;;;;;;49.80;26.13;;;-0.80;99.90;-1.30;102183.00;;;;5013817;27;87665;-70
2022/01/11 03:47:49;;;;;;;45.70;24.90;;;-0.90;99.90;-1.30;102168.00;;;;5014917;27;87027;-69
2022/01/11 03:50:15;;;;;;;41.10;22.73;;;-1.00;99.90;-1.30;102177.00;;;;4978202;27;88042;-72
2022/01/11 03:52:42;;;;;;;51.53;24.33;;;-0.90;99.90;-1.40;102180.00;;;;5013662;27;87953;-70
2022/01/11 03:55:12;;;;;;;45.33;22.23;;;-1.00;99.90;-1.40;102172.00;;;;5014868;27;89065;-70
2022/01/11 03:57:40;;;;;;;52.50;22.67;;;-1.10;99.90;-1.40;102162.00;;;;5012980;27;87896;-70
2022/01/11 04:00:18;;;;;;;52.70;23.80;;;-1.10;99.90;-1.50;102181.00;;;;5013922;27;89036;-71
2022/01/11 04:02:45;;;;;;;41.03;21.10;;;-1.10;99.90;-1.50;102180.00;;;;5014397;27;95942;-70
2022/01/11 04:05:12;;;;;;;45.60;22.10;;;-0.50;99.90;-1.50;102186.00;;;;4981562;27;87804;-69
2022/01/11 04:07:40;;;;;;;41.30;21.07;;;-1.10;99.90;-1.50;102173.00;;;;5006092;27;88225;-70
2022/01/11 04:10:08;;;;;;;39.70;20.60;;;-1.20;99.90;-1.40;102177.00;;;;4994336;28;88901;-70
2022/01/11 04:12:34;;;;;;;40.53;21.47;;;-1.00;99.90;-1.40;102191.00;;;;5011604;27;87431;-70
2022/01/11 04:15:00;;;;;;;36.10;18.43;;;-1.10;99.90;-1.40;102179.00;;;;5013453;27;93939;-71
2022/01/11 04:17:25;;;;;;;41.20;20.87;;;-1.10;99.90;-1.40;102190.00;;;;5013694;27;90141;-69
2022/01/11 04:19:52;;;;;;;35.90;20.63;;;-1.00;99.90;-1.40;102188.00;;;;5012512;27;118617;-70
2022/01/11 04:22:19;;;;;;;49.13;21.57;;;-1.10;99.90;-1.40;102188.00;;;;5014624;27;88869;-70
2022/01/11 04:24:45;;;;;;;38.30;18.90;;;-1.00;99.90;-1.40;102180.00;;;;4995617;27;87864;-70
2022/01/11 04:27:10;;;;;;;31.03;17.20;;;-1.10;99.90;-1.40;102186.00;;;;5014373;27;88187;-71
2022/01/11 04:29:36;;;;;;;32.50;18.63;;;-1.10;99.90;-1.40;102191.00;;;;5013708;27;88327;-70
2022/01/11 04:32:03;;;;;;;32.40;16.90;;;-1.10;99.90;-1.40;102187.00;;;;5008667;27;116831;-70
2022/01/11 04:34:28;;;;;;;28.53;16.80;;;-1.40;99.90;-1.40;102191.00;;;;4998342;27;91616;-72
2022/01/11 04:36:55;;;;;;;26.37;16.10;;;-1.10;99.90;-1.40;102187.00;;;;5013858;27;87280;-71
2022/01/11 04:39:22;;;;;;;29.53;16.53;;;-0.90;99.90;-1.40;102201.00;;;;5004348;27;89125;-69
2022/01/11 04:41:49;;;;;;;31.27;17.43;;;-0.90;99.90;-1.40;102196.00;;;;4975656;27;88222;-71
2022/01/11 04:44:14;;;;;;;32.70;15.67;;;-1.00;99.90;-1.40;102201.00;;;;4989326;28;88873;-71
2022/01/11 04:46:40;;;;;;;27.97;15.43;;;-0.90;99.90;-1.40;102208.00;;;;5007893;27;108507;-69
2022/01/11 04:49:06;;;;;;;34.50;17.30;;;-1.10;99.90;-1.40;102200.00;;;;5012443;27;117172;-70
2022/01/11 04:51:34;;;;;;;33.90;18.50;;;-1.00;99.90;-1.50;102198.00;;;;5013359;27;87870;-70
2022/01/11 04:54:01;;;;;;;22.30;15.60;;;-1.20;99.90;-1.50;102193.00;;;;5013400;27;87649;-72
2022/01/11 04:56:26;;;;;;;29.80;17.60;;;-1.10;99.90;-1.50;102190.00;;;;5013319;27;94123;-71
2022/01/11 04:58:52;;;;;;;28.80;16.20;;;-1.20;99.90;-1.40;102203.00;;;;5012066;27;89616;-69
2022/01/11 05:01:18;;;;;;;31.93;16.03;;;-1.20;99.90;-1.40;102212.00;;;;5013319;27;117351;-70
2022/01/11 05:03:44;;;;;;;21.97;13.63;;;-1.10;99.90;-1.50;102213.00;;;;4995300;27;87914;-70
2022/01/11 05:06:10;;;;;;;29.20;15.47;;;-1.00;99.90;-1.50;102207.00;;;;4992773;28;108783;-70
2022/01/11 05:08:36;;;;;;;28.27;14.97;;;-1.20;99.90;-1.50;102207.00;;;;5009486;27;119680;-72
2022/01/11 05:11:02;;;;;;;34.13;17.50;;;-1.20;99.90;-1.50;102203.00;;;;5013259;27;89897;-70
2022/01/11 05:13:27;;;;;;;28.50;14.60;;;-1.20;99.90;-1.40;102209.00;;;;5014025;27;87750;-71
2022/01/11 05:15:53;;;;;;;28.27;14.23;;;-1.00;99.90;-1.40;102220.00;;;;5003821;27;88081;-72
2022/01/11 05:18:19;;;;;;;27.83;15.20;;;-1.10;99.90;-1.40;102227.00;;;;4992059;28;117551;-69
2022/01/11 05:20:46;;;;;;;20.17;11.73;;;-1.00;99.90;-1.40;102224.00;;;;4990756;28;116993;-70
2022/01/11 05:23:14;;;;;;;23.43;12.93;;;-1.10;99.90;-1.40;102221.00;;;;4992743;27;87834;-69
2022/01/11 05:25:41;;;;;;;26.73;14.67;;;-1.10;99.90;-1.40;102216.00;;;;4975414;28;87143;-69
2022/01/11 05:28:07;;;;;;;23.40;13.73;;;-1.00;99.90;-1.40;102224.00;;;;4992824;27;88036;-69
2022/01/11 05:30:33;;;;;;;28.33;13.97;;;-1.10;99.90;-1.40;102219.00;;;;4992151;28;116685;-72
2022/01/11 05:32:59;;;;;;;24.40;11.90;;;-1.00;99.90;-1.40;102220.00;;;;4974196;28;88864;-71
2022/01/11 05:35:26;;;;;;;22.90;12.80;;;-1.10;99.90;-1.40;102227.00;;;;4999812;27;103338;-69
2022/01/11 05:37:53;;;;;;;19.23;10.47;;;-1.00;99.90;-1.40;102229.00;;;;5010798;27;88456;-70
2022/01/11 05:40:20;;;;;;;20.53;11.23;;;-1.00;99.90;-1.40;102239.00;;;;5012179;27;87680;-73
2022/01/11 05:42:48;;;;;;;22.70;11.60;;;-0.80;99.90;-1.40;102233.00;;;;4979667;27;88065;-70
2022/01/11 05:45:14;;;;;;;19.23;10.57;;;-1.10;99.90;-1.50;102234.00;;;;5013734;27;87973;-69
2022/01/11 05:47:40;;;;;;;19.27;10.97;;;-1.10;99.90;-1.50;102236.00;;;;5012985;27;89094;-69
2022/01/11 05:50:09;;;;;;;25.33;11.90;;;-1.10;99.90;-1.50;102240.00;;;;5013418;27;93460;-69
2022/01/11 05:52:38;;;;;;;23.30;11.13;;;-1.10;99.90;-1.50;102251.00;;;;4993832;27;87882;-69
2022/01/11 05:55:06;;;;;;;19.17;12.00;;;-1.10;99.90;-1.50;102243.00;;;;5014455;27;87711;-69
2022/01/11 05:57:32;;;;;;;20.30;11.00;;;-1.20;99.90;-1.50;102248.00;;;;5015343;27;89740;-70
2022/01/11 05:59:58;;;;;;;17.93;12.37;;;-1.20;99.90;-1.60;102250.00;;;;4998966;27;118349;-71
2022/01/11 06:02:24;;;;;;;18.63;11.60;;;-1.20;99.90;-1.60;102248.00;;;;4994534;27;113157;-70
2022/01/11 06:04:50;;;;;;;22.50;11.90;;;-1.20;99.90;-1.50;102245.00;;;;4976065;28;107532;-70
2022/01/11 06:07:16;;;;;;;21.50;12.30;;;-1.10;99.90;-1.50;102252.00;;;;4994832;27;117948;-70
2022/01/11 06:09:41;;;;;;;29.83;13.17;;;-1.20;99.90;-1.50;102246.00;;;;4995287;27;108700;-70
2022/01/11 06:12:08;;;;;;;17.77;11.43;;;-1.10;99.90;-1.40;102255.00;;;;4976442;28;92293;-71
2022/01/11 06:14:33;;;;;;;26.37;11.77;;;-1.10;99.90;-1.40;102265.00;;;;4995473;27;94565;-70
2022/01/11 06:16:59;;;;;;;23.80;13.37;;;-1.00;99.90;-1.40;102255.00;;;;4995149;28;108390;-69
2022/01/11 06:19:26;;;;;;;23.27;12.00;;;-0.30;99.90;-1.50;102261.00;;;;4994877;28;116454;-71
2022/01/11 06:21:52;;;;;;;25.13;12.93;;;-1.10;99.90;-1.50;102261.00;;;;4995940;27;88604;-70
2022/01/11 06:24:18;;;;;;;22.90;12.03;;;-1.20;99.90;-1.50;102267.00;;;;4995930;27;87615;-70
2022/01/11 06:26:43;;;;;;;22.70;11.90;;;-1.20;99.90;-1.60;102268.00;;;;4995547;27;88235;-69
2022/01/11 06:29:09;;;;;;;18.90;11.57;;;-1.10;99.90;-1.60;102279.00;;;;4998271;27;118117;-70
2022/01/11 06:31:35;;;;;;;19.43;11.83;;;-1.20;99.90;-1.60;102280.00;;;;4994863;28;114132;-70
2022/01/11 06:34:02;;;;;;;31.10;12.37;;;-1.10;99.90;-1.60;102283.00;;;;4995609;28;88121;-70
2022/01/11 06:36:29;;;;;;;25.87;11.60;;;-1.10;99.90;-1.50;102290.00;;;;4996849;27;95445;-71
2022/01/11 06:38:55;;;;;;;23.33;13.03;;;-1.20;99.90;-1.50;102288.00;;;;4995311;28;88723;-70
2022/01/11 06:41:21;;;;;;;19.63;12.83;;;-1.20;99.90;-1.50;102292.00;;;;5003374;27;88015;-72
2022/01/11 06:43:47;;;;;;;21.93;13.20;;;-1.20;99.90;-1.50;102292.00;;;;5015309;27;87477;-71
2022/01/11 06:46:14;;;;;;;21.50;12.87;;;-1.20;99.90;-1.50;102291.00;;;;4995528;27;88847;-70
2022/01/11 06:48:39;;;;;;;25.83;13.00;;;-1.20;99.90;-1.50;102305.00;;;;5015193;27;88569;-71
2022/01/11 06:51:05;;;;;;;23.47;13.23;;;-1.20;99.90;-1.50;102302.00;;;;5013126;27;113042;-70
2022/01/11 06:53:32;;;;;;;25.77;12.70;;;-0.90;99.90;-1.50;102307.00;;;;4997851;27;90869;-70
2022/01/11 06:55:58;;;;;;;25.23;14.20;;;-1.20;99.90;-1.50;102303.00;;;;4995303;28;88958;-72
2022/01/11 06:58:24;;;;;;;26.87;13.07;;;-1.50;99.90;-1.50;102321.00;;;;4994997;27;93412;-71
2022/01/11 07:00:50;;;;;;;20.27;12.13;;;-1.20;99.90;-1.50;102329.00;;;;4995216;28;87755;-73
2022/01/11 07:03:16;;;;;;;23.03;12.40;;;-1.20;99.90;-1.50;102332.00;;;;4995485;27;87142;-71
2022/01/11 07:05:43;;;;;;;27.33;15.20;;;-1.20;99.90;-1.50;102330.00;;;;4999824;27;88266;-71
2022/01/11 07:08:11;;;;;;;31.13;13.53;;;-0.20;99.90;-1.60;102331.00;;;;5014553;27;117692;-71
2022/01/11 07:10:36;;;;;;;25.23;14.03;;;-1.20;99.90;-1.60;102327.00;;;;5003073;27;88923;-71
2022/01/11 07:13:02;;;;;;;24.47;13.10;;;-1.20;99.90;-1.60;102343.00;;;;4994472;28;103178;-70
2022/01/11 07:15:29;;;;;;;27.30;12.03;;;-1.20;99.90;-1.60;102342.00;;;;4996624;27;88874;-70
2022/01/11 07:17:55;;;;;;;25.63;12.27;;;-1.30;99.90;-1.60;102347.00;;;;5014688;27;87974;-70
2022/01/11 07:20:22;;;;;;;20.67;12.50;;;-1.20;99.90;-1.60;102337.00;;;;4975640;28;107660;-70
2022/01/11 07:22:48;;;;;;;28.87;15.27;;;-1.10;99.90;-1.50;102351.00;;;;4995299;28;87569;-70
2022/01/11 07:25:13;;;;;;;24.47;13.67;;;-1.20;99.90;-1.40;102356.00;;;;4993234;28;104710;-70
2022/01/11 07:27:39;;;;;;;22.33;12.97;;;-1.10;99.90;-1.40;102348.00;;;;5007944;27;88772;-70
2022/01/11 07:30:08;;;;;;;19.07;12.17;;;-1.10;99.90;-1.40;102365.00;;;;5013056;27;113267;-71
2022/01/11 07:32:35;;;;;;;25.33;13.20;;;-1.10;99.90;-1.40;102364.00;;;;5014517;27;87853;-71
2022/01/11 07:35:02;;;;;;;25.70;12.17;;;-0.40;99.90;-1.40;102369.00;;;;4991670;28;88967;-69
2022/01/11 07:37:28;;;;;;;26.77;13.47;;;-0.50;99.90;-1.50;102367.00;;;;4976661;28;89021;-69
2022/01/11 07:39:54;;;;;;;19.27;13.57;;;-0.20;99.90;-1.50;102365.00;;;;4994715;28;87683;-70
2022/01/11 07:42:20;;;;;;;22.83;12.27;;;-1.20;99.90;-1.50;102364.00;;;;5012136;27;108349;-69
2022/01/11 07:44:48;;;;;;;31.33;12.50;;;-1.20;99.90;-1.50;102361.00;;;;5014079;27;99331;-69
2022/01/11 07:47:13;;;;;;;22.80;11.73;;;-1.20;99.90;-1.50;102361.00;;;;5012706;27;88901;-69
2022/01/11 07:49:39;;;;;;;23.43;12.73;;;-1.10;99.90;-1.50;102360.00;;;;5015467;27;87753;-71
2022/01/11 07:52:06;;;;;;;25.97;11.90;;;-1.20;99.90;-1.60;102363.00;;;;5015261;27;86893;-70
2022/01/11 07:54:31;;;;;;;18.37;11.27;;;-1.30;99.90;-1.60;102364.00;;;;5014595;27;87733;-70
2022/01/11 07:56:57;;;;;;;24.33;13.10;;;-1.30;99.90;-1.60;102367.00;;;;5011630;27;118415;-69
2022/01/11 07:59:23;;;;;;;17.67;12.97;;;-1.30;99.90;-1.60;102364.00;;;;5012816;27;108878;-71
2022/01/11 08:01:49;;;;;;;25.30;12.80;;;-1.20;99.90;-1.60;102371.00;;;;5014048;27;106426;-70
2022/01/11 08:04:14;;;;;;;26.83;13.50;;;-1.20;99.90;-1.70;102369.00;;;;5013890;27;92296;-70
2022/01/11 08:06:40;;;;;;;32.27;13.97;;;-1.30;99.90;-1.70;102378.00;;;;5000988;27;118425;-69
2022/01/11 08:09:07;;;;;;;22.30;12.10;;;-1.30;99.90;-1.60;102387.00;;;;4974230;28;111299;-69
2022/01/11 08:11:33;;;;;;;24.50;12.77;;;-1.30;99.90;-1.60;102375.00;;;;4995561;27;87738;-69
2022/01/11 08:13:59;;;;;;;32.60;14.60;;;-1.20;99.90;-1.60;102383.00;;;;5013528;27;116344;-68
2022/01/11 08:16:25;;;;;;;21.80;11.67;;;-1.20;99.90;-1.60;102378.00;;;;4993936;27;117595;-68
2022/01/11 08:18:50;;;;;;;17.93;11.30;;;-1.20;99.90;-1.60;102388.00;;;;5014043;27;87649;-70
2022/01/11 08:21:16;;;;;;;18.60;12.43;;;-0.60;99.90;-1.60;102371.00;;;;4986563;28;107903;-69
2022/01/11 08:23:42;;;;;;;24.40;13.77;;;-1.30;99.90;-1.50;102390.00;;;;4975058;28;94270;-68
2022/01/11 08:26:08;;;;;;;26.60;13.33;;;-1.20;99.90;-1.60;102382.00;;;;4992951;28;118195;-68
2022/01/11 08:28:33;;;;;;;28.63;14.60;;;-1.30;99.90;-1.50;102396.00;;;;4994303;28;87746;-68
2022/01/11 08:31:00;;;;;;;26.27;13.30;;;-1.20;99.90;-1.50;102397.00;;;;4993896;28;88007;-68
2022/01/11 08:33:26;;;;;;;23.43;13.20;;;-1.20;99.90;-1.50;102392.00;;;;4994010;28;88715;-69
2022/01/11 08:35:53;;;;;;;20.63;12.00;;;-0.50;99.90;-1.50;102398.00;;;;4994584;27;90449;-70
2022/01/11 08:38:19;;;;;;;35.73;15.00;;;-1.20;99.90;-1.50;102395.00;;;;4993857;28;87734;-68
2022/01/11 08:40:45;;;;;;;21.17;12.60;;;-1.20;99.90;-1.50;102397.00;;;;4994222;28;87075;-68
2022/01/11 08:43:10;;;;;;;21.80;12.43;;;-1.10;99.90;-1.40;102400.00;;;;4975524;28;88090;-69
2022/01/11 08:45:37;;;;;;;18.93;11.77;;;-1.10;99.90;-1.30;102411.00;;;;4992186;27;117766;-68
2022/01/11 08:48:04;;;;;;;21.60;14.00;;;-1.10;99.90;-1.30;102408.00;;;;4991014;28;91748;-68
2022/01/11 08:50:30;;;;;;;18.40;13.17;;;-1.00;99.90;-1.30;102420.00;;;;4994324;28;87696;-69
2022/01/11 08:52:57;;;;;;;26.63;14.23;;;-0.90;99.90;-1.20;102400.00;;;;4994139;28;88077;-69
2022/01/11 08:55:24;;;;;;;19.00;12.80;;;-1.00;99.90;-1.20;102401.00;;;;4993726;28;87914;-69
2022/01/11 08:57:50;;;;;;;28.73;13.97;;;-1.00;99.90;-1.20;102403.00;;;;4992857;28;98021;-69
2022/01/11 09:00:18;;;;;;;22.17;13.13;;;-0.80;99.90;-1.20;102401.00;;;;4993061;28;94654;-68
2022/01/11 09:02:50;;;;;;;25.23;14.83;;;-0.80;99.90;-1.20;102401.00;;;;4994825;27;89032;-68
2022/01/11 09:05:18;;;;;;;17.20;10.27;;;-0.80;99.90;-1.20;102414.00;;;;4993441;28;88937;-69
2022/01/11 09:07:43;;;;;;;22.47;12.83;;;-0.90;99.90;-1.20;102402.00;;;;4975306;27;87887;-69
2022/01/11 09:10:10;;;;;;;19.97;11.07;;;-0.80;99.90;-1.10;102419.00;;;;4994241;28;87811;-69
2022/01/11 09:12:36;;;;;;;27.03;13.43;;;-0.80;99.90;-1.00;102408.00;;;;4992330;28;103554;-69
2022/01/11 09:15:05;;;;;;;24.83;12.37;;;-0.70;99.90;-1.00;102421.00;;;;5003010;27;89812;-69
2022/01/11 09:17:31;;;;;;;30.33;12.30;;;-0.70;99.90;-1.00;102421.00;;;;5015877;27;88032;-69
2022/01/11 09:19:58;;;;;;;25.27;12.77;;;0.50;99.90;-0.90;102423.00;;;;5017504;27;87693;-68
2022/01/11 09:22:24;;;;;;;22.07;11.43;;;-0.60;99.90;-0.90;102429.00;;;;5017655;27;89161;-69
2022/01/11 09:24:50;;;;;;;25.57;12.70;;;-0.60;99.90;-0.90;102419.00;;;;5017310;27;88526;-69
2022/01/11 09:27:15;;;;;;;20.00;13.20;;;-0.60;99.90;-0.80;102422.00;;;;5016812;27;87862;-69
2022/01/11 09:29:43;;;;;;;22.67;13.67;;;-0.50;99.90;-0.80;102429.00;;;;5015376;27;87299;-68
2022/01/11 09:32:11;;;;;;;28.63;13.87;;;-0.50;99.90;-0.80;102443.00;;;;5016853;27;88121;-69
2022/01/11 09:34:39;;;;;;;19.13;10.83;;;-0.60;99.90;-0.80;102441.00;;;;5016214;27;106803;-70
2022/01/11 09:37:06;;;;;;;21.50;11.97;;;-0.50;99.90;-0.90;102446.00;;;;5016574;27;88656;-69
2022/01/11 09:39:33;;;;;;;24.30;11.60;;;-0.60;99.90;-0.90;102447.00;;;;5016926;27;87787;-69
2022/01/11 09:41:59;;;;;;;21.10;11.83;;;-0.60;99.90;-1.00;102437.00;;;;5016581;27;89744;-70
2022/01/11 09:44:26;;;;;;;23.47;11.87;;;-0.60;99.90;-1.00;102441.00;;;;4996286;28;88921;-69
2022/01/11 09:46:53;;;;;;;23.73;10.90;;;-0.70;99.90;-1.00;102439.00;;;;4995236;28;112411;-69
2022/01/11 09:49:19;;;;;;;22.27;12.73;;;0.00;99.90;-1.10;102433.00;;;;4985879;28;88168;-69
2022/01/11 09:51:45;;;;;;;20.77;10.17;;;-0.60;99.90;-1.10;102430.00;;;;4995340;28;117443;-70
2022/01/11 09:54:12;;;;;;;19.13;10.60;;;-0.70;99.90;-1.10;102434.00;;;;4996200;28;107799;-69
2022/01/11 09:56:39;;;;;;;22.90;9.70;;;-0.70;99.90;-1.00;102438.00;;;;4996606;28;87750;-70
2022/01/11 09:59:06;;;;;;;25.47;11.33;;;-0.70;99.90;-0.90;102439.00;;;;4996896;28;87907;-70
2022/01/11 10:01:35;;;;;;;24.00;11.87;;;-0.50;99.90;-0.90;102427.00;;;;4994533;28;118884;-71
2022/01/11 10:04:13;;;;;;;16.93;9.70;;;0.00;99.90;-0.90;102432.00;;;;4995694;28;89612;-70
2022/01/11 10:06:42;;;;;;;20.57;12.90;;;-0.60;99.90;-0.90;102424.00;;;;4998680;27;87831;-70
2022/01/11 10:09:18;;;;;;;19.87;11.43;;;-0.50;99.90;-0.90;102427.00;;;;4977383;28;88052;-69
2022/01/11 10:11:51;;;;;;;19.97;11.23;;;-0.60;99.90;-0.90;102424.00;;;;4996159;28;88071;-69
2022/01/11 10:14:32;;;;;;;21.20;11.90;;;-0.60;99.90;-0.80;102418.00;;;;4996302;28;87889;-70
2022/01/11 10:17:19;;;;;;;21.10;11.40;;;-0.50;99.90;-0.70;102430.00;;;;4977814;28;87776;-69
2022/01/11 10:19:53;;;;;;;22.07;10.00;;;-0.50;99.90;-0.60;102439.00;;;;4996829;28;86937;-70
2022/01/11 10:22:22;;;;;;;23.47;12.37;;;-0.40;99.90;-0.60;102434.00;;;;4976863;28;88751;-70
2022/01/11 10:24:54;;;;;;;19.80;11.43;;;-0.40;99.90;-0.60;102427.00;;;;4996022;28;103276;-71
2022/01/11 10:27:28;;;;;;;18.87;11.53;;;-0.20;99.90;-0.50;102432.00;;;;4995492;27;88706;-70
2022/01/11 10:30:08;;;;;;;18.17;11.37;;;-0.20;99.90;-0.50;102439.00;;;;4995225;28;87839;-70
2022/01/11 10:32:39;;;;;;;26.67;12.27;;;-0.20;99.90;-0.50;102438.00;;;;4996311;28;88005;-71
2022/01/11 10:35:09;;;;;;;19.30;10.73;;;-0.20;99.90;-0.50;102431.00;;;;4996281;27;88572;-69